LFMNLFMC

Guest
Details From LFMN - Nice/Cote d'Azur
To LFMC - Le Cannet
Flight Number -
Tags generated
Created
Modified
Stats Distance 41 nm / 76 km
Max Altitude 2,000 ft / 610 m
Waypoints 3
Social Downloads 0
Likes 0
Share VATSIM

Download

Looking for another format? Having issues loading an existing format? Contact us
Advertisement - Login to hide

Notes

Basic altitude profile: - Ascent Rate: 10ft/min - Ascent Speed: 80kts - Cruise Altitude: 3500ft - Cruise Speed: 100kts - Descent Rate: 10ft/min - Descent Speed: 80kts Options: - Use NATs: yes - Use PACOTS: yes - Use low airways: yes - Use high airways: no

Route

LFMN MUS LFMC

ID Type Via Altitude Latitude Longitude Leg Dist Tot Dist Heading (true) Name
O LFMN APT - 0 ft / 0 m 43.65798˚ 7.21536˚ - 0 nm - Nice/Cote d'Azur
MUS NDB - 2,000 ft / 610 m 43.38459˚ 6.60636˚ 31 nm 31 nm 238° / 238° NICE COTE D AZUR NDB
O LFMC APT - 0 ft / 0 m 43.38443˚ 6.38537˚ 9 nm 40 nm 270° / 270° Le Cannet

Altitude Profile

Advertisement - Login to hide

LFMN

Details ICAO LFMN (NCE)
Name Nice/Cote d'Azur
Region France
Timezone Unknown (UTC+0.0)
Stats Elevation 12 ft / 4 m (AMSL)
Location 43.657981° 7.215362°
Runways 2
Magnetic Variation 2.016° E

METAR

LFMN 142100Z 22019KT 9999 FEW071 13/08 Q1007 NOSIG

Decode

TAF

TAF LFMN 142000Z 1421/1603 23020KT 9999 SCT060 BECMG 1422/1424 CAVOK TEMPO 1502/1508 25025G35KT PROB40 TEMPO 1511/1515 24022G32KT BECMG 1520/1523 33010KT

Decode

Departure Runways

ID Width Length Bearing (true) Bearing (mag) Surface Threshold Offset Overrun Length
04L 148 ft / 45 m 8,427 ft / 2,569 m 44.85° 42.83° Asphalt 0 ft / 0 m 131 ft / 40 m
04R 148 ft / 45 m 9,720 ft / 2,963 m 44.60° 42.58° Asphalt 0 ft / 0 m 427 ft / 130 m
22L 148 ft / 45 m 9,720 ft / 2,963 m 224.62° 222.60° Asphalt 0 ft / 0 m 525 ft / 160 m
22R 148 ft / 45 m 8,427 ft / 2,569 m 224.87° 222.85° Asphalt 0 ft / 0 m 492 ft / 150 m

LFMC

Details ICAO LFMC
Name Le Cannet
Region France
Timezone Europe/Paris (UTC+1.0)
Stats Elevation 264 ft / 80 m (AMSL)
Location 43.384430° 6.385368°
Runways 2
Magnetic Variation 1.826° E

METAR

LFMC 142100Z AUTO 30006KT 9999 FEW056 10/08 Q1008

Decode

TAF

Not found

Destination Runways

ID Width Length Bearing (true) Bearing (mag) Surface Threshold Offset Overrun Length
09 98 ft / 30 m 2,619 ft / 798 m 88.40° 86.57° Asphalt 0 ft / 0 m 0 ft / 0 m
13 98 ft / 30 m 4,789 ft / 1,460 m 130.24° 128.41° Asphalt 984 ft / 300 m 0 ft / 0 m
27 98 ft / 30 m 2,619 ft / 798 m 268.41° 266.58° Asphalt 0 ft / 0 m 0 ft / 0 m
31 98 ft / 30 m 4,789 ft / 1,460 m 310.25° 308.42° Asphalt 312 ft / 95 m 0 ft / 0 m

Approach Navaids

Runway Type Ident Frequency Range Bearing (true) Bearing (mag) Slope Elevation
09 Localiser LC 109.30 MHz 18 nm / 33 km 87.22° 85.39° - 259 ft / 79 m (AMSL)
09 Glidescope LC 109.30 MHz 10 nm / 19 km 88.40° 86.58° 4.00° 1,060 ft / 323 m (AMSL)
09 DME LC 109.30 MHz 18 nm / 33 km - - - 1,060 ft / 323 m (AMSL)

Popular Alternatives